Latest Weather Observations for Townsville

IDQ60801

Issued at 12:02 pm EST Sunday 1 May 2016 (issued every 30 minutes, with the page automatically refreshed every 10 minutes)

About weather observations | Map of weather stations | Latest weather observations for QLD | Other Formats
Station Details ID: 032040 Name: TOWNSVILLE AERO Lat: -19.25 Lon: 146.77 Height: 4.34 m
Data from the previous 72 hours. | See also: Recent months at Townsville
Date/Time
EST
Temp
°C
App
Temp
°C
Dew
Point
Rel
Hum
%
Delta-T
°C
Wind Press
QNH
hPa
Press
MSL
hPa
Rain
since 9 am
mm
Dir
 
Spd
km/h
Gust
km/h
Spd
kts
Gust
kts
01/12:00pm 30.0 31.5 22.0 62 5.4 ENE 17 19 9 10 1015.5 1015.5 -
01/11:30am 29.9 31.1 22.1 63 5.3 ENE 19 28 10 15 1015.9 1015.9 0.0
01/11:00am 30.0 31.2 22.2 63 5.3 ENE 19 26 10 14 1016.4 1016.4 0.0
01/10:30am 29.2 31.0 22.6 67 4.5 ENE 17 22 9 12 1016.8 1016.8 0.0
01/10:00am 29.0 31.1 22.5 68 4.4 E 15 20 8 11 1017.3 1017.3 0.0
01/09:30am 28.3 30.9 22.7 71 3.8 SE 13 20 7 11 1017.4 1017.4 0.0
01/09:00am 28.1 31.2 22.8 73 3.6 SE 11 17 6 9 1017.4 1017.4 0.0
01/08:30am 26.1 29.7 22.4 80 2.5 S 7 11 4 6 1017.6 1017.6 0.0
01/08:00am 25.2 29.4 22.4 84 1.9 SSW 4 9 2 5 1017.4 1017.4 0.0
01/07:30am 23.8 28.7 22.3 91 1.0 CALM 0 0 0 0 1017.1 1017.1 0.0
01/07:00am 22.2 26.6 21.4 95 0.5 CALM 0 0 0 0 1016.8 1016.7 0.0
01/06:30am 21.7 26.0 21.1 96 0.4 CALM 0 0 0 0 1016.6 1016.5 0.0
01/06:00am 21.7 25.9 20.9 95 0.5 CALM 0 0 0 0 1016.3 1016.2 0.0
01/05:30am 23.0 27.7 21.9 93 0.7 CALM 0 0 0 0 1015.9 1015.8 0.0
01/05:00am 23.5 26.5 22.0 91 1.0 SSE 9 13 5 7 1015.7 1015.6 0.0
01/04:30am 23.8 27.0 22.3 91 1.0 SE 9 11 5 6 1015.4 1015.3 0.0
01/04:00am 24.3 27.6 22.5 90 1.2 SE 9 13 5 7 1015.3 1015.2 0.0
01/03:30am 24.5 27.9 22.7 90 1.2 ESE 9 13 5 7 1015.3 1015.2 0.0
01/03:00am 24.4 27.7 22.6 90 1.2 SE 9 11 5 6 1015.4 1015.3 0.0
01/02:30am 24.5 27.5 22.7 90 1.2 SE 11 13 6 7 1015.5 1015.4 0.0
01/02:00am 24.6 27.6 22.7 89 1.3 SE 11 13 6 7 1015.7 1015.6 0.0
01/01:30am 24.8 29.9 22.6 87 1.5 CALM 0 0 0 0 1015.8 1015.7 0.0
01/01:00am 24.8 29.9 22.6 87 1.5 CALM 0 0 0 0 1016.2 1016.1 0.0
01/12:30am 25.1 28.9 22.7 86 1.6 SE 7 7 4 4 1016.4 1016.3 0.0
01/12:00am 25.1 28.9 22.7 86 1.6 SE 7 9 4 5 1016.5 1016.4 0.0
 
Date/Time
EST
Temp
°C
App
Temp
°C
Dew
Point
Rel
Hum
%
Delta-T
°C
Wind Press
QNH
hPa
Press
MSL
hPa
Rain
since 9 am
mm
Dir
 
Spd
km/h
Gust
km/h
Spd
kts
Gust
kts
30/11:30pm 25.2 29.8 23.1 88 1.4 SSE 4 11 2 6 1016.6 1016.5 0.0
30/11:00pm 24.9 30.2 23.0 89 1.3 CALM 0 0 0 0 1016.7 1016.6 0.0
30/10:30pm 25.1 30.3 22.9 87 1.5 CALM 0 0 0 0 1016.6 1016.5 0.0
30/10:00pm 25.2 29.2 22.8 86 1.6 ESE 6 7 3 4 1016.6 1016.5 0.0
30/09:30pm 25.5 29.1 23.0 86 1.7 ESE 9 11 5 6 1016.5 1016.4 0.0
30/09:00pm 25.4 28.6 23.0 86 1.6 E 11 13 6 7 1016.4 1016.3 0.0
30/08:30pm 25.9 29.1 23.1 84 1.9 E 11 13 6 7 1016.2 1016.1 0.0
30/08:00pm 25.8 29.0 23.0 84 1.9 E 11 15 6 8 1016.0 1015.9 0.0
30/07:30pm 25.8 30.2 22.8 83 2.0 E 4 11 2 6 1015.7 1015.6 0.0
30/07:00pm 26.1 29.5 22.7 81 2.3 E 9 15 5 8 1015.4 1015.3 0.0
30/06:30pm 26.2 29.4 23.1 83 2.1 ENE 11 15 6 8 1015.2 1015.1 0.0
30/06:00pm 26.4 28.9 23.2 82 2.2 ENE 15 22 8 12 1015.1 1015.0 0.0
30/05:30pm 27.0 28.8 23.2 80 2.6 ENE 19 28 10 15 1014.9 1014.8 0.0
30/05:00pm 27.6 28.3 22.9 75 3.2 ENE 24 28 13 15 1014.6 1014.5 0.0
30/04:30pm 28.5 28.3 22.8 71 3.9 ENE 28 35 15 19 1014.4 1014.3 0.0
30/04:00pm 28.4 28.8 22.5 70 4.0 ENE 24 32 13 17 1014.1 1014.0 0.0
30/03:30pm 29.0 28.5 22.2 66 4.6 ENE 28 35 15 19 1014.0 1013.9 0.0
30/03:00pm 29.0 29.6 22.8 69 4.2 ENE 24 30 13 16 1014.1 1014.0 0.0
30/02:30pm 29.1 29.3 22.8 69 4.3 ENE 26 33 14 18 1014.1 1014.0 0.0
30/02:00pm 29.2 28.8 22.4 66 4.6 NE 28 33 15 18 1014.3 1014.2 0.0
30/01:30pm 29.9 29.7 22.7 65 4.9 NE 28 35 15 19 1014.6 1014.5 0.0
30/01:00pm 29.6 29.2 22.4 65 4.9 ENE 28 33 15 18 1015.0 1014.9 0.0
30/12:30pm 30.0 29.2 21.7 61 5.6 NE 28 35 15 19 1015.5 1015.4 0.0
30/12:00pm 30.2 30.1 21.4 59 5.9 ENE 24 32 13 17 1016.0 1015.9 0.0
30/11:30am 30.0 30.8 21.7 61 5.6 ENE 20 30 11 16 1016.4 1016.3 0.0
30/11:00am 29.1 29.5 21.0 61 5.4 E 20 28 11 15 1016.9 1016.9 0.0
30/10:30am 29.0 29.3 20.7 61 5.5 ESE 20 26 11 14 1017.3 1017.3 0.0
30/10:00am 29.4 30.9 21.3 61 5.4 SE 15 20 8 11 1017.5 1017.5 0.0
30/09:30am 28.0 29.2 21.4 67 4.4 SE 17 24 9 13 1017.6 1017.6 0.0
30/09:00am 27.5 28.5 21.0 67 4.3 SE 17 26 9 14 1017.4 1017.4 0.0
30/08:30am 26.3 28.0 21.0 72 3.5 SE 13 19 7 10 1017.3 1017.3 0.0
30/08:00am 25.2 29.0 20.9 77 2.8 WSW 2 9 1 5 1017.5 1017.5 0.0
30/07:30am 23.6 26.7 21.5 88 1.4 W 7 9 4 5 1017.2 1017.2 0.0
30/07:00am 22.1 25.4 20.7 92 0.9 WSW 4 7 2 4 1016.9 1016.9 0.0
30/06:30am 21.4 25.3 20.3 93 0.7 CALM 0 0 0 0 1016.6 1016.5 0.0
30/06:00am 21.6 25.6 20.5 93 0.7 CALM 0 0 0 0 1016.2 1016.1 0.0
30/05:30am 21.7 25.6 20.3 92 0.9 CALM 0 0 0 0 1016.0 1015.9 0.0
30/05:00am 23.3 25.3 20.8 86 1.6 SSE 11 13 6 7 1015.8 1015.7 0.0
30/04:30am 23.4 25.4 20.8 85 1.7 SSE 11 13 6 7 1015.6 1015.5 0.0
30/04:00am 23.8 25.6 21.1 85 1.8 SSE 13 15 7 8 1015.5 1015.4 0.0
30/03:30am 23.9 26.0 21.0 84 1.9 SE 11 13 6 7 1015.5 1015.4 0.0
30/03:00am 24.3 26.1 21.1 82 2.1 SE 13 17 7 9 1015.9 1015.8 0.0
30/02:30am 24.3 26.2 21.4 84 1.9 SE 13 17 7 9 1016.0 1015.9 0.0
30/02:00am 24.3 26.3 21.6 85 1.8 ESE 13 15 7 8 1016.1 1016.0 0.0
30/01:30am 24.3 26.2 21.4 84 1.9 SE 13 15 7 8 1016.3 1016.2 0.0
30/01:00am 24.8 26.4 21.5 82 2.2 ESE 15 20 8 11 1016.6 1016.5 0.0
30/12:30am 24.6 27.0 21.6 83 2.0 ESE 11 13 6 7 1016.9 1016.9 0.0
30/12:00am 24.7 27.1 21.5 82 2.1 ESE 11 17 6 9 1017.0 1017.0 0.0
 
Date/Time
EST
Temp
°C
App
Temp
°C
Dew
Point
Rel
Hum
%
Delta-T
°C
Wind Press
QNH
hPa
Press
MSL
hPa
Rain
since 9 am
mm
Dir
 
Spd
km/h
Gust
km/h
Spd
kts
Gust
kts
29/11:30pm 24.5 26.8 21.3 82 2.1 ESE 11 15 6 8 1017.3 1017.3 0.0
29/11:00pm 24.5 26.2 21.0 81 2.3 ESE 13 15 7 8 1017.3 1017.3 0.0
29/10:30pm 24.8 26.6 21.2 80 2.4 SE 13 15 7 8 1017.5 1017.5 0.0
29/10:00pm 25.2 27.1 21.4 79 2.5 ESE 13 17 7 9 1017.5 1017.5 0.0
29/09:30pm 25.5 26.6 21.3 77 2.8 ESE 17 24 9 13 1017.4 1017.4 0.0
29/09:00pm 25.8 26.4 21.1 75 3.1 ESE 19 28 10 15 1017.3 1017.3 0.0
29/08:30pm 25.8 26.4 21.3 76 3.0 E 20 32 11 17 1017.2 1017.2 0.0
29/08:00pm 25.9 28.3 21.5 76 2.9 ESE 11 17 6 9 1016.9 1016.9 0.0
29/07:30pm 26.3 27.9 21.5 75 3.2 ESE 15 20 8 11 1016.7 1016.6 0.0
29/07:00pm 26.3 27.2 21.6 75 3.1 ESE 19 24 10 13 1016.2 1016.1 0.0
29/06:30pm 26.2 28.4 21.9 77 2.9 ESE 13 17 7 9 1015.8 1015.7 0.0
29/06:00pm 26.5 28.8 22.0 76 3.0 E 13 17 7 9 1015.3 1015.2 0.0
29/05:30pm 27.1 27.1 21.7 72 3.6 E 24 32 13 17 1015.0 1014.9 0.0
29/05:00pm 27.9 27.7 21.3 67 4.4 ENE 24 30 13 16 1014.7 1014.6 0.0
29/04:30pm 28.3 27.7 21.2 65 4.7 E 26 35 14 19 1014.3 1014.2 0.0
29/04:00pm 28.8 27.6 20.8 62 5.3 E 28 35 15 19 1014.1 1014.0 0.0
29/03:30pm 29.1 28.0 21.0 61 5.4 E 28 35 15 19 1014.0 1013.9 0.0
29/03:00pm 29.2 27.9 21.3 62 5.3 E 30 37 16 20 1013.8 1013.7 0.0
29/02:30pm 29.6 28.1 21.0 60 5.7 ENE 30 35 16 19 1014.0 1013.9 0.0
29/02:00pm 29.7 27.4 20.5 57 6.1 ENE 33 41 18 22 1014.1 1014.0 0.0
29/01:30pm 30.0 28.1 21.0 58 6.0 ENE 32 39 17 21 1014.6 1014.5 0.0
29/01:00pm 30.3 28.6 20.5 55 6.5 E 30 41 16 22 1015.1 1015.0 0.0
29/12:30pm 29.3 27.4 20.9 60 5.6 ENE 32 39 17 21 1015.5 1015.4 0.0
29/12:00pm 29.5 29.3 21.3 61 5.5 E 24 33 13 18 1015.9 1015.8 0.0
29/11:30am 28.9 29.4 21.1 62 5.2 E 20 28 11 15 1016.4 1016.3 0.0
29/11:00am 29.1 28.3 20.8 61 5.5 ESE 26 41 14 22 1016.7 1016.6 0.0
29/10:30am 28.9 27.8 20.2 59 5.7 ESE 26 33 14 18 1017.1 1017.1 0.0
29/10:00am 29.3 28.1 20.9 60 5.6 ESE 28 33 15 18 1017.3 1017.3 0.0
29/09:30am 28.2 29.5 20.8 64 4.9 SE 15 26 8 14 1017.5 1017.5 0.0
29/09:00am 26.6 27.3 20.5 69 4.0 SSE 17 26 9 14 1017.3 1017.3 0.2
29/08:30am 26.1 26.7 20.3 70 3.8 SE 17 20 9 11 1017.2 1017.2 0.2
29/08:00am 25.9 27.1 20.6 72 3.5 SSE 15 19 8 10 1017.0 1017.0 0.2
29/07:30am 25.1 27.5 20.8 77 2.8 S 9 11 5 6 1016.8 1016.7 0.2
29/07:00am 24.0 25.9 20.6 81 2.2 SSW 11 13 6 7 1016.5 1016.4 0.2
29/06:30am 24.0 26.9 21.1 84 1.9 S 7 13 4 7 1016.3 1016.2 0.2
29/06:00am 24.0 26.3 20.6 81 2.2 SW 9 11 5 6 1016.0 1015.9 0.2
29/05:30am 23.3 26.3 21.2 88 1.4 W 7 11 4 6 1015.6 1015.5 0.2
29/05:00am 23.5 26.2 20.7 84 1.8 SSE 7 9 4 5 1015.3 1015.2 0.2
29/04:30am 23.4 26.1 20.6 84 1.8 SE 7 11 4 6 1015.3 1015.2 0.2
29/04:00am 24.0 26.4 20.9 83 2.0 SSE 9 15 5 8 1015.3 1015.2 0.2
29/03:30am 23.6 25.8 21.2 86 1.6 S 11 15 6 8 1015.3 1015.2 0.2
29/03:00am 24.0 25.2 20.6 81 2.2 SSE 15 17 8 9 1015.7 1015.6 0.2
29/02:30am 23.8 25.2 21.1 85 1.8 SSE 15 20 8 11 1015.7 1015.6 0.2
29/02:00am 23.6 24.3 21.2 86 1.6 SSE 19 28 10 15 1015.8 1015.7 0.2
29/01:52am 23.8 24.3 21.1 85 1.8 SE 20 32 11 17 1015.9 1015.8 0.2
29/01:37am 23.6 24.2 21.3 87 1.5 SE 20 30 11 16 1016.0 1015.9 0.2
29/01:30am 24.1 24.7 21.1 83 2.0 SE 19 22 10 12 1016.2 1016.1 0.0
29/01:00am 24.7 23.3 20.4 77 2.8 ESE 28 35 15 19 1016.4 1016.3 0.0
29/12:30am 25.1 23.4 19.8 72 3.4 ESE 28 35 15 19 1016.2 1016.1 0.0
29/12:00am 24.9 24.5 20.1 74 3.1 ESE 22 28 12 15 1016.4 1016.3 0.0
 
Date/Time
EST
Temp
°C
App
Temp
°C
Dew
Point
Rel
Hum
%
Delta-T
°C
Wind Press
QNH
hPa
Press
MSL
hPa
Rain
since 9 am
mm
Dir
 
Spd
km/h
Gust
km/h
Spd
kts
Gust
kts
28/11:30pm 24.5 25.2 20.5 78 2.6 ESE 17 22 9 12 1016.6 1016.5 0.0
28/11:00pm 24.7 25.5 20.7 78 2.6 SE 17 20 9 11 1016.9 1016.9 0.0
28/10:30pm 25.3 25.2 20.7 75 3.0 ESE 22 30 12 16 1017.2 1017.2 0.0
28/10:00pm 25.4 26.1 21.2 77 2.8 ESE 19 30 10 16 1017.2 1017.2 0.0
28/09:30pm 25.1 27.1 21.6 81 2.3 ESE 13 17 7 9 1017.1 1017.1 0.0
28/09:00pm 25.3 27.1 21.8 81 2.3 ESE 15 22 8 12 1017.1 1017.1 0.0
28/08:30pm 25.7 27.2 22.0 80 2.5 ESE 17 28 9 15 1016.8 1016.7 0.0
28/08:00pm 25.8 27.4 22.2 80 2.4 ESE 17 22 9 12 1016.5 1016.4 0.0
28/07:30pm 25.9 26.6 22.3 80 2.4 ESE 22 32 12 17 1016.1 1016.0 0.0
28/07:00pm 26.1 26.8 22.2 79 2.6 ESE 22 30 12 16 1015.6 1015.5 0.0
28/06:30pm 26.2 27.3 22.3 79 2.6 ESE 20 32 11 17 1015.2 1015.1 0.0
28/06:00pm 26.4 26.7 22.2 78 2.8 ESE 24 32 13 17 1014.9 1014.8 0.0
28/05:30pm 27.3 27.3 20.9 68 4.2 E 22 30 12 16 1014.7 1014.6 0.0
28/05:00pm 27.8 27.6 21.2 67 4.4 E 24 35 13 19 1014.5 1014.4 0.0
28/04:30pm 28.9 28.0 19.9 58 5.9 E 24 32 13 17 1014.2 1014.1 0.0
28/04:00pm 29.3 27.9 19.7 56 6.3 E 26 33 14 18 1014.0 1013.9 0.0
28/03:30pm 29.0 27.3 20.5 60 5.6 E 30 37 16 20 1014.0 1013.9 0.0
28/03:00pm 30.4 29.1 20.6 55 6.5 E 28 35 15 19 1014.1 1014.0 0.0
28/02:30pm 30.1 28.3 19.5 53 6.9 ENE 28 33 15 18 1013.9 1013.8 0.0
28/02:00pm 29.9 27.4 18.8 51 7.2 ENE 30 39 16 21 1014.2 1014.1 0.0
28/01:30pm 29.9 27.0 18.8 51 7.2 ENE 32 41 17 22 1014.2 1014.1 0.0
28/01:00pm 29.6 26.7 18.9 52 6.9 E 32 43 17 23 1014.6 1014.5 0.0
28/12:30pm 30.7 28.3 19.0 49 7.6 E 30 41 16 22 1015.0 1014.9 0.0

Other Formats:

Comma delimited format used in spreadsheet applications
http://www.bom.gov.au/fwo/IDQ60801/IDQ60801.94294.axf

JavaScript Object Notation format (JSON) in row-major order
http://www.bom.gov.au/fwo/IDQ60801/IDQ60801.94294.json